Terminal Aerodrome Forecast
Issued by NWS Chicago, IL

Home | Current Version | Previous Version | Text Only | Print | Product List | Glossary On
Versions: 1 2 3 4 5 6 7 8 9 10 11 12 13 14 15 16 17 18 19 20 21 22 23 24 25 26 27 28 29 30 31
000
FTUS43 KLOT 302320
TAFRFD
TAF
KRFD 302320Z 3100/3124 VRB03KT P6SM FEW250
     FM310700 00000KT 3SM BR SKC
     FM311000 00000KT 1 1/2SM BR SKC
     FM311300 20004KT P6SM SKC=

USA.gov is the U.S. government's official web portal to all federal, state and local government web resources and services.